KLGF/LGF METAR and TAF weather

Enter ICAO airport designator
Station Type Date Time Source
KLGF METAR 2020/12/05 04:58 UTC NOAA

KLGF 050458Z AUTO 00000KT 10SM CLR 10/M16 A3017 RMK AO2 SLP217 T01031164 $


Station Type Date Time Source
KLGF Decoded METAR 2020/12/05 04:58 UTC NOAA

Station name not available
Dec 04, 2020 - 11:58 PM EST / 2020.12.05 0458 UTC
Wind: Calm:0
Visibility: 10 mile(s):0
Sky conditions: clear
Temperature: 50.5 F (10.3 C)
Dew Point: 2.5 F (-16.4 C)
Relative Humidity: 13%
Pressure (altimeter): 30.17 in. Hg (1021 hPa)
ob: KLGF 050458Z AUTO 00000KT 10SM CLR 10/M16 A3017 RMK AO2 SLP217 T01031164
cycle: 5

Station Type Date Time Source
KLGF TAF UTC NOAA

Error!

Example: see airport list